sensor_id;sensor_type;location;lat;lon;timestamp;temperature;humidity
18611;DHT22;9435;52.122;5.502;2024-03-02T00:01:36;9.00;1.00
18611;DHT22;9435;52.122;5.502;2024-03-02T00:04:05;9.00;1.00
18611;DHT22;9435;52.122;5.502;2024-03-02T00:06:34;9.10;99.90
18611;DHT22;9435;52.122;5.502;2024-03-02T00:09:02;9.10;99.90
18611;DHT22;9435;52.122;5.502;2024-03-02T00:11:29;9.10;1.00
18611;DHT22;9435;52.122;5.502;2024-03-02T00:13:56;9.00;1.00
18611;DHT22;9435;52.122;5.502;2024-03-02T00:16:23;9.10;1.00
18611;DHT22;9435;52.122;5.502;2024-03-02T00:18:51;9.10;99.90
18611;DHT22;9435;52.122;5.502;2024-03-02T00:21:19;9.10;1.00
18611;DHT22;9435;52.122;5.502;2024-03-02T00:23:48;9.10;1.00
18611;DHT22;9435;52.122;5.502;2024-03-02T00:26:17;9.10;1.00
18611;DHT22;9435;52.122;5.502;2024-03-02T00:28:44;9.10;1.00
18611;DHT22;9435;52.122;5.502;2024-03-02T00:31:12;9.10;99.90
18611;DHT22;9435;52.122;5.502;2024-03-02T00:33:41;9.00;1.00
18611;DHT22;9435;52.122;5.502;2024-03-02T00:36:09;9.00;1.00
18611;DHT22;9435;52.122;5.502;2024-03-02T00:38:44;8.90;1.00
18611;DHT22;9435;52.122;5.502;2024-03-02T00:41:17;8.80;99.90
18611;DHT22;9435;52.122;5.502;2024-03-02T00:43:48;8.80;1.00
18611;DHT22;9435;52.122;5.502;2024-03-02T00:46:18;8.80;1.00
18611;DHT22;9435;52.122;5.502;2024-03-02T00:48:51;8.70;1.00
18611;DHT22;9435;52.122;5.502;2024-03-02T00:51:20;8.70;1.00
18611;DHT22;9435;52.122;5.502;2024-03-02T00:53:48;8.70;1.00
18611;DHT22;9435;52.122;5.502;2024-03-02T00:56:16;8.80;1.00
18611;DHT22;9435;52.122;5.502;2024-03-02T00:58:44;8.80;99.90
18611;DHT22;9435;52.122;5.502;2024-03-02T01:01:11;8.70;1.00
18611;DHT22;9435;52.122;5.502;2024-03-02T01:03:38;8.80;1.00
18611;DHT22;9435;52.122;5.502;2024-03-02T01:06:05;8.70;1.00
18611;DHT22;9435;52.122;5.502;2024-03-02T01:08:33;8.60;99.90
18611;DHT22;9435;52.122;5.502;2024-03-02T01:11:02;8.50;99.90
18611;DHT22;9435;52.122;5.502;2024-03-02T01:13:29;8.50;1.00
18611;DHT22;9435;52.122;5.502;2024-03-02T01:15:56;8.50;1.00
18611;DHT22;9435;52.122;5.502;2024-03-02T01:18:24;8.40;1.00
18611;DHT22;9435;52.122;5.502;2024-03-02T01:20:51;8.30;1.00
18611;DHT22;9435;52.122;5.502;2024-03-02T01:23:20;8.30;1.00
18611;DHT22;9435;52.122;5.502;2024-03-02T01:25:48;8.20;1.00
18611;DHT22;9435;52.122;5.502;2024-03-02T01:28:16;8.20;1.00
18611;DHT22;9435;52.122;5.502;2024-03-02T01:30:44;8.10;1.00
18611;DHT22;9435;52.122;5.502;2024-03-02T01:33:11;8.10;1.00
18611;DHT22;9435;52.122;5.502;2024-03-02T01:35:38;8.00;1.00
18611;DHT22;9435;52.122;5.502;2024-03-02T01:38:05;8.00;11.00
18611;DHT22;9435;52.122;5.502;2024-03-02T01:40:33;7.90;27.20
18611;DHT22;9435;52.122;5.502;2024-03-02T01:43:01;7.90;48.30
18611;DHT22;9435;52.122;5.502;2024-03-02T01:45:29;7.90;43.40
18611;DHT22;9435;52.122;5.502;2024-03-02T01:47:56;7.80;47.60
18611;DHT22;9435;52.122;5.502;2024-03-02T01:50:27;7.80;58.80
18611;DHT22;9435;52.122;5.502;2024-03-02T01:52:55;7.80;78.90
18611;DHT22;9435;52.122;5.502;2024-03-02T01:55:23;7.80;85.10
18611;DHT22;9435;52.122;5.502;2024-03-02T01:57:50;7.80;99.90
18611;DHT22;9435;52.122;5.502;2024-03-02T02:00:18;7.70;99.40
18611;DHT22;9435;52.122;5.502;2024-03-02T02:02:48;7.80;99.90
18611;DHT22;9435;52.122;5.502;2024-03-02T02:05:15;7.80;96.80
18611;DHT22;9435;52.122;5.502;2024-03-02T02:07:43;7.70;99.90
18611;DHT22;9435;52.122;5.502;2024-03-02T02:10:10;7.70;99.90
18611;DHT22;9435;52.122;5.502;2024-03-02T02:12:38;7.70;99.90
18611;DHT22;9435;52.122;5.502;2024-03-02T02:15:24;7.70;99.90
18611;DHT22;9435;52.122;5.502;2024-03-02T02:17:53;7.60;99.90
18611;DHT22;9435;52.122;5.502;2024-03-02T02:20:20;7.60;99.90
18611;DHT22;9435;52.122;5.502;2024-03-02T02:22:58;7.60;99.90
18611;DHT22;9435;52.122;5.502;2024-03-02T02:25:26;7.60;99.90
18611;DHT22;9435;52.122;5.502;2024-03-02T02:27:53;7.60;99.90
18611;DHT22;9435;52.122;5.502;2024-03-02T02:30:21;7.60;99.90
18611;DHT22;9435;52.122;5.502;2024-03-02T02:32:49;7.50;99.90
18611;DHT22;9435;52.122;5.502;2024-03-02T02:35:16;7.50;99.90
18611;DHT22;9435;52.122;5.502;2024-03-02T02:37:44;7.40;99.90
18611;DHT22;9435;52.122;5.502;2024-03-02T02:40:13;7.40;99.90
18611;DHT22;9435;52.122;5.502;2024-03-02T02:42:40;7.40;99.90
18611;DHT22;9435;52.122;5.502;2024-03-02T02:45:08;7.30;99.90
18611;DHT22;9435;52.122;5.502;2024-03-02T02:47:36;7.30;99.90
18611;DHT22;9435;52.122;5.502;2024-03-02T02:50:04;7.40;99.90
18611;DHT22;9435;52.122;5.502;2024-03-02T02:52:32;7.30;99.90
18611;DHT22;9435;52.122;5.502;2024-03-02T02:55:03;7.30;99.90
18611;DHT22;9435;52.122;5.502;2024-03-02T02:57:31;7.30;99.90
18611;DHT22;9435;52.122;5.502;2024-03-02T03:00:02;7.30;99.90
18611;DHT22;9435;52.122;5.502;2024-03-02T03:02:36;7.20;99.90
18611;DHT22;9435;52.122;5.502;2024-03-02T03:05:05;7.20;99.90
18611;DHT22;9435;52.122;5.502;2024-03-02T03:07:32;7.20;99.90
18611;DHT22;9435;52.122;5.502;2024-03-02T03:10:00;7.20;99.90
18611;DHT22;9435;52.122;5.502;2024-03-02T03:12:28;7.10;99.90
18611;DHT22;9435;52.122;5.502;2024-03-02T03:14:57;7.10;99.90
18611;DHT22;9435;52.122;5.502;2024-03-02T03:17:24;7.10;99.90
18611;DHT22;9435;52.122;5.502;2024-03-02T03:19:51;7.10;99.90
18611;DHT22;9435;52.122;5.502;2024-03-02T03:22:18;7.00;99.90
18611;DHT22;9435;52.122;5.502;2024-03-02T03:24:46;7.00;99.90
18611;DHT22;9435;52.122;5.502;2024-03-02T03:27:13;7.00;99.90
18611;DHT22;9435;52.122;5.502;2024-03-02T03:29:40;6.90;99.90
18611;DHT22;9435;52.122;5.502;2024-03-02T03:32:08;7.00;99.90
18611;DHT22;9435;52.122;5.502;2024-03-02T03:34:35;7.00;99.90
18611;DHT22;9435;52.122;5.502;2024-03-02T03:37:03;7.00;99.90
18611;DHT22;9435;52.122;5.502;2024-03-02T03:39:30;7.00;99.90
18611;DHT22;9435;52.122;5.502;2024-03-02T03:41:57;7.00;99.90
18611;DHT22;9435;52.122;5.502;2024-03-02T03:44:24;7.00;99.90
18611;DHT22;9435;52.122;5.502;2024-03-02T03:46:51;7.00;99.90
18611;DHT22;9435;52.122;5.502;2024-03-02T03:49:20;7.00;99.90
18611;DHT22;9435;52.122;5.502;2024-03-02T03:51:47;7.00;99.90
18611;DHT22;9435;52.122;5.502;2024-03-02T03:54:14;6.90;99.90
18611;DHT22;9435;52.122;5.502;2024-03-02T03:56:41;6.90;99.90
18611;DHT22;9435;52.122;5.502;2024-03-02T03:59:08;6.90;99.90
18611;DHT22;9435;52.122;5.502;2024-03-02T04:01:35;6.90;99.90
18611;DHT22;9435;52.122;5.502;2024-03-02T04:04:02;6.90;99.90
18611;DHT22;9435;52.122;5.502;2024-03-02T04:06:31;6.90;99.90
18611;DHT22;9435;52.122;5.502;2024-03-02T04:08:58;6.90;99.90
18611;DHT22;9435;52.122;5.502;2024-03-02T04:11:25;6.90;99.90
18611;DHT22;9435;52.122;5.502;2024-03-02T04:13:52;6.90;99.90
18611;DHT22;9435;52.122;5.502;2024-03-02T04:16:19;7.00;99.90
18611;DHT22;9435;52.122;5.502;2024-03-02T04:18:46;7.00;99.90
18611;DHT22;9435;52.122;5.502;2024-03-02T04:21:13;7.00;99.90
18611;DHT22;9435;52.122;5.502;2024-03-02T04:23:42;7.00;99.90
18611;DHT22;9435;52.122;5.502;2024-03-02T04:26:09;7.00;99.90
18611;DHT22;9435;52.122;5.502;2024-03-02T04:28:36;7.00;99.90
18611;DHT22;9435;52.122;5.502;2024-03-02T04:31:03;7.00;99.90
18611;DHT22;9435;52.122;5.502;2024-03-02T04:33:30;7.00;99.90
18611;DHT22;9435;52.122;5.502;2024-03-02T04:35:57;7.00;99.90
18611;DHT22;9435;52.122;5.502;2024-03-02T04:38:24;7.00;99.90
18611;DHT22;9435;52.122;5.502;2024-03-02T04:40:52;6.90;99.90
18611;DHT22;9435;52.122;5.502;2024-03-02T04:43:20;6.90;99.90
18611;DHT22;9435;52.122;5.502;2024-03-02T04:45:47;6.90;99.90
18611;DHT22;9435;52.122;5.502;2024-03-02T04:48:14;6.90;99.90
18611;DHT22;9435;52.122;5.502;2024-03-02T04:50:41;7.00;99.90
18611;DHT22;9435;52.122;5.502;2024-03-02T04:53:08;7.00;99.90
18611;DHT22;9435;52.122;5.502;2024-03-02T04:55:35;6.90;99.90
18611;DHT22;9435;52.122;5.502;2024-03-02T04:58:30;6.90;99.90
18611;DHT22;9435;52.122;5.502;2024-03-02T05:00:57;6.90;99.90
18611;DHT22;9435;52.122;5.502;2024-03-02T05:03:24;6.90;99.90
18611;DHT22;9435;52.122;5.502;2024-03-02T05:05:51;6.90;99.90
18611;DHT22;9435;52.122;5.502;2024-03-02T05:08:18;6.80;99.90
18611;DHT22;9435;52.122;5.502;2024-03-02T05:10:47;6.80;99.90
18611;DHT22;9435;52.122;5.502;2024-03-02T05:13:14;6.90;99.90
18611;DHT22;9435;52.122;5.502;2024-03-02T05:15:42;6.80;99.90
18611;DHT22;9435;52.122;5.502;2024-03-02T05:18:09;6.90;99.90
18611;DHT22;9435;52.122;5.502;2024-03-02T05:20:36;6.90;99.90
18611;DHT22;9435;52.122;5.502;2024-03-02T05:23:03;6.90;99.90
18611;DHT22;9435;52.122;5.502;2024-03-02T05:25:30;6.90;99.90
18611;DHT22;9435;52.122;5.502;2024-03-02T05:27:58;6.90;99.90
18611;DHT22;9435;52.122;5.502;2024-03-02T05:30:25;6.90;99.90
18611;DHT22;9435;52.122;5.502;2024-03-02T05:32:54;6.90;99.90
18611;DHT22;9435;52.122;5.502;2024-03-02T05:35:21;6.90;99.90
18611;DHT22;9435;52.122;5.502;2024-03-02T05:37:48;6.90;98.40
18611;DHT22;9435;52.122;5.502;2024-03-02T05:40:15;6.90;87.60
18611;DHT22;9435;52.122;5.502;2024-03-02T05:42:42;6.90;69.40
18611;DHT22;9435;52.122;5.502;2024-03-02T05:45:09;6.90;22.30
18611;DHT22;9435;52.122;5.502;2024-03-02T05:47:36;6.90;14.00
18611;DHT22;9435;52.122;5.502;2024-03-02T05:50:06;6.90;1.00
18611;DHT22;9435;52.122;5.502;2024-03-02T05:52:33;6.80;1.00
18611;DHT22;9435;52.122;5.502;2024-03-02T05:55:00;6.90;1.00
18611;DHT22;9435;52.122;5.502;2024-03-02T05:57:28;6.80;1.00
18611;DHT22;9435;52.122;5.502;2024-03-02T06:00:11;6.80;1.00
18611;DHT22;9435;52.122;5.502;2024-03-02T06:02:39;6.70;1.00
18611;DHT22;9435;52.122;5.502;2024-03-02T06:05:08;6.80;1.00
18611;DHT22;9435;52.122;5.502;2024-03-02T06:07:35;6.70;1.00
18611;DHT22;9435;52.122;5.502;2024-03-02T06:10:02;6.70;1.00
18611;DHT22;9435;52.122;5.502;2024-03-02T06:12:31;6.60;13.20
18611;DHT22;9435;52.122;5.502;2024-03-02T06:14:58;6.60;30.10
18611;DHT22;9435;52.122;5.502;2024-03-02T06:17:25;6.60;54.80
18611;DHT22;9435;52.122;5.502;2024-03-02T06:19:52;6.60;78.40
18611;DHT22;9435;52.122;5.502;2024-03-02T06:22:20;6.50;80.00
18611;DHT22;9435;52.122;5.502;2024-03-02T06:24:48;6.50;94.00
18611;DHT22;9435;52.122;5.502;2024-03-02T06:27:15;6.40;99.00
18611;DHT22;9435;52.122;5.502;2024-03-02T06:29:43;6.40;99.90
18611;DHT22;9435;52.122;5.502;2024-03-02T06:32:10;6.40;99.90
18611;DHT22;9435;52.122;5.502;2024-03-02T06:34:37;6.30;99.90
18611;DHT22;9435;52.122;5.502;2024-03-02T06:37:04;6.30;99.90
18611;DHT22;9435;52.122;5.502;2024-03-02T06:39:32;6.20;99.90
18611;DHT22;9435;52.122;5.502;2024-03-02T06:42:01;6.20;99.90
18611;DHT22;9435;52.122;5.502;2024-03-02T06:44:29;6.10;99.90
18611;DHT22;9435;52.122;5.502;2024-03-02T06:46:56;6.20;99.90
18611;DHT22;9435;52.122;5.502;2024-03-02T06:49:23;6.20;99.90
18611;DHT22;9435;52.122;5.502;2024-03-02T06:51:50;6.20;99.90
18611;DHT22;9435;52.122;5.502;2024-03-02T06:54:17;6.30;99.90
18611;DHT22;9435;52.122;5.502;2024-03-02T06:56:45;6.30;99.90
18611;DHT22;9435;52.122;5.502;2024-03-02T06:59:12;6.40;99.90
18611;DHT22;9435;52.122;5.502;2024-03-02T07:01:39;6.30;99.90
18611;DHT22;9435;52.122;5.502;2024-03-02T07:04:07;6.30;99.90
18611;DHT22;9435;52.122;5.502;2024-03-02T07:06:34;6.40;99.90
18611;DHT22;9435;52.122;5.502;2024-03-02T07:09:01;6.40;99.90
18611;DHT22;9435;52.122;5.502;2024-03-02T07:11:28;6.40;99.90
18611;DHT22;9435;52.122;5.502;2024-03-02T07:13:57;6.50;99.90
18611;DHT22;9435;52.122;5.502;2024-03-02T07:16:24;6.60;99.90
18611;DHT22;9435;52.122;5.502;2024-03-02T07:18:55;6.60;99.90
18611;DHT22;9435;52.122;5.502;2024-03-02T07:21:23;6.70;99.90
18611;DHT22;9435;52.122;5.502;2024-03-02T07:23:50;6.80;99.90
18611;DHT22;9435;52.122;5.502;2024-03-02T07:26:18;6.90;99.90
18611;DHT22;9435;52.122;5.502;2024-03-02T07:28:46;7.00;99.90
18611;DHT22;9435;52.122;5.502;2024-03-02T07:31:15;7.00;89.90
18611;DHT22;9435;52.122;5.502;2024-03-02T07:33:44;7.10;68.20
18611;DHT22;9435;52.122;5.502;2024-03-02T07:36:12;7.20;48.80
18611;DHT22;9435;52.122;5.502;2024-03-02T07:38:39;7.30;35.30
18611;DHT22;9435;52.122;5.502;2024-03-02T07:41:06;7.50;17.80
18611;DHT22;9435;52.122;5.502;2024-03-02T07:43:34;7.60;1.00
18611;DHT22;9435;52.122;5.502;2024-03-02T07:46:01;7.80;1.00
18611;DHT22;9435;52.122;5.502;2024-03-02T07:48:30;7.90;1.00
18611;DHT22;9435;52.122;5.502;2024-03-02T07:50:57;7.90;1.00
18611;DHT22;9435;52.122;5.502;2024-03-02T07:53:25;8.00;1.00
18611;DHT22;9435;52.122;5.502;2024-03-02T07:55:52;8.20;1.00
18611;DHT22;9435;52.122;5.502;2024-03-02T07:58:19;8.20;1.00
18611;DHT22;9435;52.122;5.502;2024-03-02T08:00:47;8.20;1.00
18611;DHT22;9435;52.122;5.502;2024-03-02T08:03:14;8.20;1.00
18611;DHT22;9435;52.122;5.502;2024-03-02T08:05:44;8.20;1.00
18611;DHT22;9435;52.122;5.502;2024-03-02T08:08:11;8.10;1.00
18611;DHT22;9435;52.122;5.502;2024-03-02T08:10:38;8.20;1.00
18611;DHT22;9435;52.122;5.502;2024-03-02T08:13:06;8.10;1.00
18611;DHT22;9435;52.122;5.502;2024-03-02T08:15:33;8.10;1.00
18611;DHT22;9435;52.122;5.502;2024-03-02T08:18:00;8.00;1.00
18611;DHT22;9435;52.122;5.502;2024-03-02T08:20:27;8.00;1.00
18611;DHT22;9435;52.122;5.502;2024-03-02T08:22:56;7.90;1.00
18611;DHT22;9435;52.122;5.502;2024-03-02T08:25:23;7.80;1.00
18611;DHT22;9435;52.122;5.502;2024-03-02T08:27:50;7.90;1.00
18611;DHT22;9435;52.122;5.502;2024-03-02T08:30:17;7.80;1.00
18611;DHT22;9435;52.122;5.502;2024-03-02T08:32:44;7.80;1.00
18611;DHT22;9435;52.122;5.502;2024-03-02T08:35:13;7.80;1.00
18611;DHT22;9435;52.122;5.502;2024-03-02T08:37:41;8.00;1.00
18611;DHT22;9435;52.122;5.502;2024-03-02T08:40:11;8.20;1.00
18611;DHT22;9435;52.122;5.502;2024-03-02T08:42:38;8.30;1.00
18611;DHT22;9435;52.122;5.502;2024-03-02T08:45:06;8.40;1.00
18611;DHT22;9435;52.122;5.502;2024-03-02T08:47:34;8.60;1.00
18611;DHT22;9435;52.122;5.502;2024-03-02T08:50:01;8.70;1.00
18611;DHT22;9435;52.122;5.502;2024-03-02T08:52:29;8.80;1.00
18611;DHT22;9435;52.122;5.502;2024-03-02T08:54:56;8.80;99.90
18611;DHT22;9435;52.122;5.502;2024-03-02T08:57:25;8.80;1.00
18611;DHT22;9435;52.122;5.502;2024-03-02T08:59:53;8.90;1.00
18611;DHT22;9435;52.122;5.502;2024-03-02T09:02:21;8.90;1.00
18611;DHT22;9435;52.122;5.502;2024-03-02T09:04:49;9.00;1.00
18611;DHT22;9435;52.122;5.502;2024-03-02T09:07:16;9.00;1.00
18611;DHT22;9435;52.122;5.502;2024-03-02T09:09:43;9.00;1.00
18611;DHT22;9435;52.122;5.502;2024-03-02T09:12:10;8.90;1.00
18611;DHT22;9435;52.122;5.502;2024-03-02T09:14:40;9.00;99.90
18611;DHT22;9435;52.122;5.502;2024-03-02T09:17:08;9.10;1.00
18611;DHT22;9435;52.122;5.502;2024-03-02T09:19:36;9.20;99.90
18611;DHT22;9435;52.122;5.502;2024-03-02T09:22:04;9.30;1.00
18611;DHT22;9435;52.122;5.502;2024-03-02T09:24:31;9.40;1.00
18611;DHT22;9435;52.122;5.502;2024-03-02T09:26:59;9.50;75.00
18611;DHT22;9435;52.122;5.502;2024-03-02T09:29:26;9.40;1.00
18611;DHT22;9435;52.122;5.502;2024-03-02T09:31:54;9.40;1.00
18611;DHT22;9435;52.122;5.502;2024-03-02T09:34:21;9.50;99.90
18611;DHT22;9435;52.122;5.502;2024-03-02T09:36:48;9.60;99.90
18611;DHT22;9435;52.122;5.502;2024-03-02T09:39:17;9.60;1.00
18611;DHT22;9435;52.122;5.502;2024-03-02T09:41:44;9.70;99.90
18611;DHT22;9435;52.122;5.502;2024-03-02T09:44:12;9.80;1.00
18611;DHT22;9435;52.122;5.502;2024-03-02T09:46:39;9.80;99.90
18611;DHT22;9435;52.122;5.502;2024-03-02T09:49:07;9.80;1.00
18611;DHT22;9435;52.122;5.502;2024-03-02T09:51:35;9.80;99.90
18611;DHT22;9435;52.122;5.502;2024-03-02T09:54:02;9.90;1.00
18611;DHT22;9435;52.122;5.502;2024-03-02T09:56:29;9.90;99.90
18611;DHT22;9435;52.122;5.502;2024-03-02T09:58:56;10.00;1.00
18611;DHT22;9435;52.122;5.502;2024-03-02T10:01:23;10.00;1.00
18611;DHT22;9435;52.122;5.502;2024-03-02T10:03:50;10.10;99.90
18611;DHT22;9435;52.122;5.502;2024-03-02T10:06:23;10.10;1.00
18611;DHT22;9435;52.122;5.502;2024-03-02T10:08:51;10.00;1.00
18611;DHT22;9435;52.122;5.502;2024-03-02T10:11:26;10.10;1.00
18611;DHT22;9435;52.122;5.502;2024-03-02T10:14:08;10.10;99.90
18611;DHT22;9435;52.122;5.502;2024-03-02T10:16:36;10.20;90.90
18611;DHT22;9435;52.122;5.502;2024-03-02T10:19:17;10.20;1.00
18611;DHT22;9435;52.122;5.502;2024-03-02T10:21:46;10.10;1.00
18611;DHT22;9435;52.122;5.502;2024-03-02T10:24:13;10.20;1.00
18611;DHT22;9435;52.122;5.502;2024-03-02T10:26:40;10.10;1.00
18611;DHT22;9435;52.122;5.502;2024-03-02T10:29:08;10.20;1.00
18611;DHT22;9435;52.122;5.502;2024-03-02T10:31:37;10.30;1.00
18611;DHT22;9435;52.122;5.502;2024-03-02T10:34:04;10.30;1.00
18611;DHT22;9435;52.122;5.502;2024-03-02T10:36:32;10.30;1.00
18611;DHT22;9435;52.122;5.502;2024-03-02T10:39:04;10.30;1.00
18611;DHT22;9435;52.122;5.502;2024-03-02T10:41:33;10.40;99.90
18611;DHT22;9435;52.122;5.502;2024-03-02T10:44:02;10.50;99.90
18611;DHT22;9435;52.122;5.502;2024-03-02T10:46:30;10.50;1.00
18611;DHT22;9435;52.122;5.502;2024-03-02T10:48:58;10.60;1.00
18611;DHT22;9435;52.122;5.502;2024-03-02T10:51:26;10.70;99.90
18611;DHT22;9435;52.122;5.502;2024-03-02T10:53:54;10.80;99.90
18611;DHT22;9435;52.122;5.502;2024-03-02T10:56:27;10.90;99.90
18611;DHT22;9435;52.122;5.502;2024-03-02T10:59:02;10.90;99.90
18611;DHT22;9435;52.122;5.502;2024-03-02T11:01:31;10.80;99.90
18611;DHT22;9435;52.122;5.502;2024-03-02T11:03:59;10.90;99.90
18611;DHT22;9435;52.122;5.502;2024-03-02T11:06:28;11.00;47.20
18611;DHT22;9435;52.122;5.502;2024-03-02T11:09:00;11.00;6.10
18611;DHT22;9435;52.122;5.502;2024-03-02T11:11:35;11.10;14.90
18611;DHT22;9435;52.122;5.502;2024-03-02T11:14:04;11.20;99.90
18611;DHT22;9435;52.122;5.502;2024-03-02T11:16:36;11.20;99.90
18611;DHT22;9435;52.122;5.502;2024-03-02T11:19:06;11.20;80.10
18611;DHT22;9435;52.122;5.502;2024-03-02T11:21:34;11.30;99.40
18611;DHT22;9435;52.122;5.502;2024-03-02T11:24:30;11.40;99.90
18611;DHT22;9435;52.122;5.502;2024-03-02T11:27:03;11.40;1.00
18611;DHT22;9435;52.122;5.502;2024-03-02T11:29:46;11.40;1.00
18611;DHT22;9435;52.122;5.502;2024-03-02T11:32:14;11.30;99.90
18611;DHT22;9435;52.122;5.502;2024-03-02T11:34:42;11.40;99.90
18611;DHT22;9435;52.122;5.502;2024-03-02T11:37:12;11.50;97.50
18611;DHT22;9435;52.122;5.502;2024-03-02T11:39:40;11.60;99.90
18611;DHT22;9435;52.122;5.502;2024-03-02T11:42:09;11.60;1.00
18611;DHT22;9435;52.122;5.502;2024-03-02T11:44:38;11.70;98.60
18611;DHT22;9435;52.122;5.502;2024-03-02T11:47:07;11.70;1.00
18611;DHT22;9435;52.122;5.502;2024-03-02T11:49:38;11.80;1.00
18611;DHT22;9435;52.122;5.502;2024-03-02T11:52:06;11.80;1.00
18611;DHT22;9435;52.122;5.502;2024-03-02T11:54:35;11.90;1.00
18611;DHT22;9435;52.122;5.502;2024-03-02T11:57:05;11.90;1.00
18611;DHT22;9435;52.122;5.502;2024-03-02T11:59:34;11.90;1.00
18611;DHT22;9435;52.122;5.502;2024-03-02T12:02:02;12.00;79.10
18611;DHT22;9435;52.122;5.502;2024-03-02T12:04:29;12.00;1.00
18611;DHT22;9435;52.122;5.502;2024-03-02T12:06:59;12.00;5.00
18611;DHT22;9435;52.122;5.502;2024-03-02T12:09:29;11.90;1.00
18611;DHT22;9435;52.122;5.502;2024-03-02T12:12:04;12.00;6.80
18611;DHT22;9435;52.122;5.502;2024-03-02T12:14:32;12.10;99.90
18611;DHT22;9435;52.122;5.502;2024-03-02T12:17:00;12.00;1.00
18611;DHT22;9435;52.122;5.502;2024-03-02T12:19:28;12.10;1.00
18611;DHT22;9435;52.122;5.502;2024-03-02T12:21:56;12.10;1.00
18611;DHT22;9435;52.122;5.502;2024-03-02T12:24:23;12.10;1.00
18611;DHT22;9435;52.122;5.502;2024-03-02T12:26:51;12.20;1.00
18611;DHT22;9435;52.122;5.502;2024-03-02T12:29:19;12.30;1.00
18611;DHT22;9435;52.122;5.502;2024-03-02T12:31:48;12.30;1.00
18611;DHT22;9435;52.122;5.502;2024-03-02T12:34:17;12.40;1.00
18611;DHT22;9435;52.122;5.502;2024-03-02T12:36:46;12.20;1.00
18611;DHT22;9435;52.122;5.502;2024-03-02T12:39:15;12.10;1.00
18611;DHT22;9435;52.122;5.502;2024-03-02T12:41:43;12.10;1.00
18611;DHT22;9435;52.122;5.502;2024-03-02T12:44:10;12.20;1.00
18611;DHT22;9435;52.122;5.502;2024-03-02T12:46:37;12.30;1.00
18611;DHT22;9435;52.122;5.502;2024-03-02T12:49:11;12.40;1.00
18611;DHT22;9435;52.122;5.502;2024-03-02T12:51:41;12.30;1.00
18611;DHT22;9435;52.122;5.502;2024-03-02T12:54:09;12.40;1.00
18611;DHT22;9435;52.122;5.502;2024-03-02T12:56:37;12.40;1.00
18611;DHT22;9435;52.122;5.502;2024-03-02T12:59:04;12.30;1.00
18611;DHT22;9435;52.122;5.502;2024-03-02T13:01:31;12.20;1.00
18611;DHT22;9435;52.122;5.502;2024-03-02T13:03:59;12.20;1.00
18611;DHT22;9435;52.122;5.502;2024-03-02T13:06:26;12.30;1.00
18611;DHT22;9435;52.122;5.502;2024-03-02T13:08:56;12.30;1.00
18611;DHT22;9435;52.122;5.502;2024-03-02T13:11:23;12.20;1.00
18611;DHT22;9435;52.122;5.502;2024-03-02T13:13:51;12.20;1.00
18611;DHT22;9435;52.122;5.502;2024-03-02T13:16:18;12.20;1.00
18611;DHT22;9435;52.122;5.502;2024-03-02T13:18:46;12.20;1.00
18611;DHT22;9435;52.122;5.502;2024-03-02T13:21:14;12.20;1.00
18611;DHT22;9435;52.122;5.502;2024-03-02T13:23:41;12.30;1.00
18611;DHT22;9435;52.122;5.502;2024-03-02T13:26:09;12.30;1.00
18611;DHT22;9435;52.122;5.502;2024-03-02T13:28:38;12.30;1.00
18611;DHT22;9435;52.122;5.502;2024-03-02T13:31:05;12.30;1.00
18611;DHT22;9435;52.122;5.502;2024-03-02T13:33:33;12.30;1.00
18611;DHT22;9435;52.122;5.502;2024-03-02T13:36:00;12.30;1.00
18611;DHT22;9435;52.122;5.502;2024-03-02T13:38:28;12.30;1.00
18611;DHT22;9435;52.122;5.502;2024-03-02T13:40:55;12.30;1.00
18611;DHT22;9435;52.122;5.502;2024-03-02T13:43:24;12.20;1.00
18611;DHT22;9435;52.122;5.502;2024-03-02T13:45:51;12.20;1.00
18611;DHT22;9435;52.122;5.502;2024-03-02T13:48:19;12.20;1.00
18611;DHT22;9435;52.122;5.502;2024-03-02T13:50:46;12.20;1.00
18611;DHT22;9435;52.122;5.502;2024-03-02T13:53:15;12.20;1.00
18611;DHT22;9435;52.122;5.502;2024-03-02T13:55:43;12.10;1.00
18611;DHT22;9435;52.122;5.502;2024-03-02T13:58:10;12.10;1.00
18611;DHT22;9435;52.122;5.502;2024-03-02T14:00:39;12.10;1.00
18611;DHT22;9435;52.122;5.502;2024-03-02T14:03:06;12.10;1.00
18611;DHT22;9435;52.122;5.502;2024-03-02T14:05:34;12.10;1.00
18611;DHT22;9435;52.122;5.502;2024-03-02T14:08:03;12.20;1.00
18611;DHT22;9435;52.122;5.502;2024-03-02T14:10:31;12.20;1.00
18611;DHT22;9435;52.122;5.502;2024-03-02T14:12:58;12.30;1.00
18611;DHT22;9435;52.122;5.502;2024-03-02T14:15:25;12.30;1.00
18611;DHT22;9435;52.122;5.502;2024-03-02T14:17:52;12.20;1.00
18611;DHT22;9435;52.122;5.502;2024-03-02T14:20:19;12.10;1.00
18611;DHT22;9435;52.122;5.502;2024-03-02T14:22:48;12.20;1.00
18611;DHT22;9435;52.122;5.502;2024-03-02T14:25:16;12.20;1.00
18611;DHT22;9435;52.122;5.502;2024-03-02T14:27:44;12.30;1.00
18611;DHT22;9435;52.122;5.502;2024-03-02T14:30:13;12.40;1.00
18611;DHT22;9435;52.122;5.502;2024-03-02T14:32:40;12.50;1.00
18611;DHT22;9435;52.122;5.502;2024-03-02T14:35:09;12.60;1.00
18611;DHT22;9435;52.122;5.502;2024-03-02T14:37:37;12.70;1.00
18611;DHT22;9435;52.122;5.502;2024-03-02T14:40:06;12.70;1.00
18611;DHT22;9435;52.122;5.502;2024-03-02T14:42:35;12.80;1.00
18611;DHT22;9435;52.122;5.502;2024-03-02T14:45:02;12.90;1.00
18611;DHT22;9435;52.122;5.502;2024-03-02T14:47:32;12.90;1.00
18611;DHT22;9435;52.122;5.502;2024-03-02T14:50:01;12.90;1.00
18611;DHT22;9435;52.122;5.502;2024-03-02T14:52:33;12.80;1.00
18611;DHT22;9435;52.122;5.502;2024-03-02T14:55:00;12.70;1.00
18611;DHT22;9435;52.122;5.502;2024-03-02T14:57:32;12.70;1.00
18611;DHT22;9435;52.122;5.502;2024-03-02T14:59:59;12.70;1.00
18611;DHT22;9435;52.122;5.502;2024-03-02T15:02:26;12.80;1.00
18611;DHT22;9435;52.122;5.502;2024-03-02T15:04:54;12.80;1.00
18611;DHT22;9435;52.122;5.502;2024-03-02T15:07:21;12.90;1.00
18611;DHT22;9435;52.122;5.502;2024-03-02T15:09:51;12.90;1.00
18611;DHT22;9435;52.122;5.502;2024-03-02T15:12:19;12.90;1.00
18611;DHT22;9435;52.122;5.502;2024-03-02T15:14:46;12.80;1.00
18611;DHT22;9435;52.122;5.502;2024-03-02T15:17:14;12.80;1.00
18611;DHT22;9435;52.122;5.502;2024-03-02T15:19:42;12.70;1.00
18611;DHT22;9435;52.122;5.502;2024-03-02T15:22:09;12.70;1.00
18611;DHT22;9435;52.122;5.502;2024-03-02T15:24:36;12.70;1.00
18611;DHT22;9435;52.122;5.502;2024-03-02T15:27:05;12.70;1.00
18611;DHT22;9435;52.122;5.502;2024-03-02T15:29:34;12.70;1.00
18611;DHT22;9435;52.122;5.502;2024-03-02T15:32:02;12.70;1.00
18611;DHT22;9435;52.122;5.502;2024-03-02T15:34:31;12.70;1.00
18611;DHT22;9435;52.122;5.502;2024-03-02T15:36:59;12.70;1.00
18611;DHT22;9435;52.122;5.502;2024-03-02T15:39:29;12.60;1.00
18611;DHT22;9435;52.122;5.502;2024-03-02T15:41:57;12.60;1.00
18611;DHT22;9435;52.122;5.502;2024-03-02T15:44:26;12.70;1.00
18611;DHT22;9435;52.122;5.502;2024-03-02T15:46:55;12.80;1.00
18611;DHT22;9435;52.122;5.502;2024-03-02T15:49:23;12.80;1.00
18611;DHT22;9435;52.122;5.502;2024-03-02T15:51:50;12.80;1.00
18611;DHT22;9435;52.122;5.502;2024-03-02T15:54:19;12.70;1.00
18611;DHT22;9435;52.122;5.502;2024-03-02T15:56:47;12.70;1.00
18611;DHT22;9435;52.122;5.502;2024-03-02T15:59:14;12.60;1.00
18611;DHT22;9435;52.122;5.502;2024-03-02T16:02:03;12.60;1.00
18611;DHT22;9435;52.122;5.502;2024-03-02T16:04:30;12.60;1.00
18611;DHT22;9435;52.122;5.502;2024-03-02T16:06:58;12.50;1.00
18611;DHT22;9435;52.122;5.502;2024-03-02T16:09:25;12.50;1.00
18611;DHT22;9435;52.122;5.502;2024-03-02T16:11:52;12.50;1.00